sensor_id;sensor_type;location;lat;lon;timestamp;pressure;altitude;pressure_sealevel;temperature;humidity
29121;BME280;16191;49.548;8.658;2023-05-08T00:01:23;100760.22;;;14.72;100.00
29121;BME280;16191;49.548;8.658;2023-05-08T00:03:50;100765.66;;;14.69;100.00
29121;BME280;16191;49.548;8.658;2023-05-08T00:06:17;100766.66;;;14.67;100.00
29121;BME280;16191;49.548;8.658;2023-05-08T00:08:44;100760.34;;;14.71;100.00
29121;BME280;16191;49.548;8.658;2023-05-08T00:11:10;100759.41;;;14.72;100.00
29121;BME280;16191;49.548;8.658;2023-05-08T00:13:37;100764.66;;;14.72;100.00
29121;BME280;16191;49.548;8.658;2023-05-08T00:16:03;100759.41;;;14.72;100.00
29121;BME280;16191;49.548;8.658;2023-05-08T00:18:30;100757.72;;;14.71;100.00
29121;BME280;16191;49.548;8.658;2023-05-08T00:20:56;100755.75;;;14.74;100.00
29121;BME280;16191;49.548;8.658;2023-05-08T00:23:23;100763.03;;;14.69;100.00
29121;BME280;16191;49.548;8.658;2023-05-08T00:25:49;100760.34;;;14.71;100.00
29121;BME280;16191;49.548;8.658;2023-05-08T00:28:16;100766.50;;;14.70;100.00
29121;BME280;16191;49.548;8.658;2023-05-08T00:30:42;100763.13;;;14.68;100.00
29121;BME280;16191;49.548;8.658;2023-05-08T00:33:09;100768.50;;;14.65;100.00
29121;BME280;16191;49.548;8.658;2023-05-08T00:35:36;100768.28;;;14.69;100.00
29121;BME280;16191;49.548;8.658;2023-05-08T00:38:03;100765.59;;;14.71;100.00
29121;BME280;16191;49.548;8.658;2023-05-08T00:40:29;100766.50;;;14.70;100.00
29121;BME280;16191;49.548;8.658;2023-05-08T00:42:56;100757.84;;;14.68;100.00
29121;BME280;16191;49.548;8.658;2023-05-08T00:45:23;100759.56;;;14.69;100.00
29121;BME280;16191;49.548;8.658;2023-05-08T00:47:50;100761.00;;;14.57;100.00
29121;BME280;16191;49.548;8.658;2023-05-08T00:50:17;100761.56;;;14.64;100.00
29121;BME280;16191;49.548;8.658;2023-05-08T00:52:45;100765.97;;;14.63;100.00
29121;BME280;16191;49.548;8.658;2023-05-08T00:55:11;100765.81;;;14.66;100.00
29121;BME280;16191;49.548;8.658;2023-05-08T00:57:38;100760.72;;;14.63;100.00
29121;BME280;16191;49.548;8.658;2023-05-08T01:00:05;100756.88;;;14.52;100.00
29121;BME280;16191;49.548;8.658;2023-05-08T01:02:33;100759.44;;;14.53;100.00
29121;BME280;16191;49.548;8.658;2023-05-08T01:05:02;100767.25;;;14.55;100.00
29121;BME280;16191;49.548;8.658;2023-05-08T01:07:29;100755.97;;;14.53;100.00
29121;BME280;16191;49.548;8.658;2023-05-08T01:09:55;100754.25;;;14.52;100.00
29121;BME280;16191;49.548;8.658;2023-05-08T01:12:37;100756.28;;;14.47;100.00
29121;BME280;16191;49.548;8.658;2023-05-08T01:15:13;100759.28;;;14.56;100.00
29121;BME280;16191;49.548;8.658;2023-05-08T01:17:53;100759.44;;;14.53;100.00
29121;BME280;16191;49.548;8.658;2023-05-08T01:23:14;100774.97;;;14.58;100.00
29121;BME280;16191;49.548;8.658;2023-05-08T01:35:19;100769.81;;;14.56;100.00
29121;BME280;16191;49.548;8.658;2023-05-08T01:38:32;100767.03;;;14.59;100.00
29121;BME280;16191;49.548;8.658;2023-05-08T01:41:30;100774.19;;;14.56;100.00
29121;BME280;16191;49.548;8.658;2023-05-08T01:44:23;100772.22;;;14.61;100.00
29121;BME280;16191;49.548;8.658;2023-05-08T01:46:54;100767.88;;;14.60;100.00
29121;BME280;16191;49.548;8.658;2023-05-08T01:49:26;100769.16;;;14.51;100.00
29121;BME280;16191;49.548;8.658;2023-05-08T01:52:05;100767.41;;;14.52;100.00
29121;BME280;16191;49.548;8.658;2023-05-08T01:54:43;100773.81;;;14.46;100.00
29121;BME280;16191;49.548;8.658;2023-05-08T01:57:13;100774.84;;;14.61;100.00
29121;BME280;16191;49.548;8.658;2023-05-08T01:59:41;100781.94;;;14.59;100.00
29121;BME280;16191;49.548;8.658;2023-05-08T02:02:09;100773.13;;;14.60;100.00
29121;BME280;16191;49.548;8.658;2023-05-08T02:04:38;100793.22;;;14.61;100.00
29121;BME280;16191;49.548;8.658;2023-05-08T02:07:06;100787.91;;;14.62;100.00
29121;BME280;16191;49.548;8.658;2023-05-08T02:09:33;100796.13;;;14.55;100.00
29121;BME280;16191;49.548;8.658;2023-05-08T02:12:01;100797.69;;;14.59;100.00
29121;BME280;16191;49.548;8.658;2023-05-08T02:14:29;100792.66;;;14.54;100.00
29121;BME280;16191;49.548;8.658;2023-05-08T02:16:58;100794.44;;;14.54;100.00
29121;BME280;16191;49.548;8.658;2023-05-08T02:19:28;100797.13;;;14.52;100.00
29121;BME280;16191;49.548;8.658;2023-05-08T02:21:57;100793.38;;;14.58;100.00
29121;BME280;16191;49.548;8.658;2023-05-08T02:24:25;100801.47;;;14.53;100.00
29121;BME280;16191;49.548;8.658;2023-05-08T02:26:52;100796.06;;;14.56;100.00
29121;BME280;16191;49.548;8.658;2023-05-08T02:29:21;100795.06;;;14.59;100.00
29121;BME280;16191;49.548;8.658;2023-05-08T02:31:48;100797.69;;;14.59;100.00
29121;BME280;16191;49.548;8.658;2023-05-08T02:34:16;100797.00;;;14.55;100.00
29121;BME280;16191;49.548;8.658;2023-05-08T02:36:43;100796.00;;;14.58;100.00
29121;BME280;16191;49.548;8.658;2023-05-08T02:39:12;100796.78;;;14.60;100.00
29121;BME280;16191;49.548;8.658;2023-05-08T02:41:40;100794.00;;;14.63;100.00
29121;BME280;16191;49.548;8.658;2023-05-08T02:44:08;100791.38;;;14.63;100.00
29121;BME280;16191;49.548;8.658;2023-05-08T02:49:31;100796.06;;;14.56;100.00
29121;BME280;16191;49.548;8.658;2023-05-08T02:52:05;100796.38;;;14.50;100.00
29121;BME280;16191;49.548;8.658;2023-05-08T02:54:40;100798.06;;;14.51;100.00
29121;BME280;16191;49.548;8.658;2023-05-08T02:59:58;100801.31;;;14.56;100.00
29121;BME280;16191;49.548;8.658;2023-05-08T03:02:42;100806.09;;;14.48;100.00
29121;BME280;16191;49.548;8.658;2023-05-08T03:05:16;100801.63;;;14.50;100.00
29121;BME280;16191;49.548;8.658;2023-05-08T03:07:46;100794.50;;;14.52;100.00
29121;BME280;16191;49.548;8.658;2023-05-08T03:10:17;100799.09;;;14.49;100.00
29121;BME280;16191;49.548;8.658;2023-05-08T03:12:47;100796.38;;;14.50;100.00
29121;BME280;16191;49.548;8.658;2023-05-08T03:15:26;100799.94;;;14.49;100.00
29121;BME280;16191;49.548;8.658;2023-05-08T03:17:56;100795.75;;;14.45;100.00
29121;BME280;16191;49.548;8.658;2023-05-08T03:20:24;100802.84;;;14.43;100.00
29121;BME280;16191;49.548;8.658;2023-05-08T03:22:53;100808.72;;;14.48;100.00
29121;BME280;16191;49.548;8.658;2023-05-08T03:25:21;100803.41;;;14.50;100.00
29121;BME280;16191;49.548;8.658;2023-05-08T03:27:49;100805.19;;;14.49;100.00
29121;BME280;16191;49.548;8.658;2023-05-08T03:30:19;100806.31;;;14.44;100.00
29121;BME280;16191;49.548;8.658;2023-05-08T03:32:57;100800.00;;;14.48;100.00
29121;BME280;16191;49.548;8.658;2023-05-08T03:35:25;100799.16;;;14.47;100.00
29121;BME280;16191;49.548;8.658;2023-05-08T03:37:53;100801.72;;;14.49;100.00
29121;BME280;16191;49.548;8.658;2023-05-08T03:40:20;100801.31;;;14.37;100.00
29121;BME280;16191;49.548;8.658;2023-05-08T03:42:47;100812.50;;;14.43;100.00
29121;BME280;16191;49.548;8.658;2023-05-08T03:45:15;100795.06;;;14.40;100.00
29121;BME280;16191;49.548;8.658;2023-05-08T03:47:43;100805.94;;;14.32;100.00
29121;BME280;16191;49.548;8.658;2023-05-08T03:50:10;100791.03;;;14.33;100.00
29121;BME280;16191;49.548;8.658;2023-05-08T03:52:37;100797.19;;;14.32;100.00
29121;BME280;16191;49.548;8.658;2023-05-08T03:55:05;100800.06;;;14.27;100.00
29121;BME280;16191;49.548;8.658;2023-05-08T03:57:38;100793.13;;;14.26;100.00
29121;BME280;16191;49.548;8.658;2023-05-08T04:00:21;100785.31;;;14.25;100.00
29121;BME280;16191;49.548;8.658;2023-05-08T04:02:55;100793.13;;;14.26;100.00
29121;BME280;16191;49.548;8.658;2023-05-08T04:05:34;100794.91;;;14.26;100.00
29121;BME280;16191;49.548;8.658;2023-05-08T04:08:14;100802.63;;;14.29;100.00
29121;BME280;16191;49.548;8.658;2023-05-08T04:10:48;100797.28;;;14.30;100.00
29121;BME280;16191;49.548;8.658;2023-05-08T04:13:26;100795.03;;;14.23;100.00
29121;BME280;16191;49.548;8.658;2023-05-08T04:16:06;100792.41;;;14.23;100.00
29121;BME280;16191;49.548;8.658;2023-05-08T04:18:36;100791.50;;;14.24;100.00
29121;BME280;16191;49.548;8.658;2023-05-08T04:21:10;100793.13;;;14.26;100.00
29121;BME280;16191;49.548;8.658;2023-05-08T04:23:39;100789.72;;;14.24;100.00
29121;BME280;16191;49.548;8.658;2023-05-08T04:26:07;100784.25;;;14.29;100.00
29121;BME280;16191;49.548;8.658;2023-05-08T04:28:34;100790.72;;;14.22;100.00
29121;BME280;16191;49.548;8.658;2023-05-08T04:31:02;100789.00;;;14.21;100.00
29121;BME280;16191;49.548;8.658;2023-05-08T04:33:29;100792.41;;;14.23;100.00
29121;BME280;16191;49.548;8.658;2023-05-08T04:36:00;100790.91;;;14.17;100.00
29121;BME280;16191;49.548;8.658;2023-05-08T04:38:27;100793.81;;;14.11;100.00
29121;BME280;16191;49.548;8.658;2023-05-08T04:40:53;100794.25;;;14.21;100.00
29121;BME280;16191;49.548;8.658;2023-05-08T04:43:21;100799.00;;;14.13;100.00
29121;BME280;16191;49.548;8.658;2023-05-08T04:45:47;100807.84;;;14.10;100.00
29121;BME280;16191;49.548;8.658;2023-05-08T04:48:14;100806.88;;;14.13;100.00
29121;BME280;16191;49.548;8.658;2023-05-08T04:50:40;100813.75;;;14.15;100.00
29121;BME280;16191;49.548;8.658;2023-05-08T04:53:07;100814.88;;;14.10;100.00
29121;BME280;16191;49.548;8.658;2023-05-08T04:55:34;100821.56;;;14.17;100.00
29121;BME280;16191;49.548;8.658;2023-05-08T04:58:00;100824.13;;;14.18;100.00
29121;BME280;16191;49.548;8.658;2023-05-08T05:00:27;100822.47;;;14.16;100.00
29121;BME280;16191;49.548;8.658;2023-05-08T05:02:53;100823.91;;;14.23;100.00
29121;BME280;16191;49.548;8.658;2023-05-08T05:05:20;100826.47;;;14.24;100.00
29121;BME280;16191;49.548;8.658;2023-05-08T05:07:47;100824.56;;;14.28;100.00
29121;BME280;16191;49.548;8.658;2023-05-08T05:10:14;100836.81;;;14.27;100.00
29121;BME280;16191;49.548;8.658;2023-05-08T05:12:40;100830.16;;;14.20;100.00
29121;BME280;16191;49.548;8.658;2023-05-08T05:15:07;100826.75;;;14.18;100.00
29121;BME280;16191;49.548;8.658;2023-05-08T05:17:35;100835.25;;;14.23;100.00
29121;BME280;16191;49.548;8.658;2023-05-08T05:20:02;100832.50;;;14.26;100.00
29121;BME280;16191;49.548;8.658;2023-05-08T05:22:28;100831.56;;;14.27;100.00
29121;BME280;16191;49.548;8.658;2023-05-08T05:24:55;100833.47;;;14.24;100.00
29121;BME280;16191;49.548;8.658;2023-05-08T05:27:23;100832.56;;;14.25;100.00
29121;BME280;16191;49.548;8.658;2023-05-08T05:29:50;100834.53;;;14.20;100.00
29121;BME280;16191;49.548;8.658;2023-05-08T05:32:16;100840.50;;;14.23;100.00
29121;BME280;16191;49.548;8.658;2023-05-08T05:34:43;100833.41;;;14.25;100.00
29121;BME280;16191;49.548;8.658;2023-05-08T05:37:10;100840.91;;;14.14;100.00
29121;BME280;16191;49.548;8.658;2023-05-08T05:39:36;100847.72;;;14.18;100.00
29121;BME280;16191;49.548;8.658;2023-05-08T05:42:04;100855.03;;;14.12;100.00
29121;BME280;16191;49.548;8.658;2023-05-08T05:44:30;100844.41;;;14.15;100.00
29121;BME280;16191;49.548;8.658;2023-05-08T05:46:57;100843.41;;;14.17;100.00
29121;BME280;16191;49.548;8.658;2023-05-08T05:49:23;100852.34;;;14.13;100.00
29121;BME280;16191;49.548;8.658;2023-05-08T05:51:50;100848.38;;;14.04;100.00
29121;BME280;16191;49.548;8.658;2023-05-08T05:54:16;100853.56;;;14.06;100.00
29121;BME280;16191;49.548;8.658;2023-05-08T05:56:43;100848.31;;;14.06;100.00
29121;BME280;16191;49.548;8.658;2023-05-08T05:59:10;100847.53;;;14.04;100.00
29121;BME280;16191;49.548;8.658;2023-05-08T06:01:36;100847.22;;;14.10;100.00
29121;BME280;16191;49.548;8.658;2023-05-08T06:04:04;100848.38;;;14.04;100.00
29121;BME280;16191;49.548;8.658;2023-05-08T06:06:31;100847.09;;;14.13;100.00
29121;BME280;16191;49.548;8.658;2023-05-08T06:08:58;100846.38;;;14.10;100.00
29121;BME280;16191;49.548;8.658;2023-05-08T06:11:25;100851.16;;;14.20;100.00
29121;BME280;16191;49.548;8.658;2023-05-08T06:13:52;100846.69;;;14.22;100.00
29121;BME280;16191;49.548;8.658;2023-05-08T06:16:18;100846.59;;;14.24;100.00
29121;BME280;16191;49.548;8.658;2023-05-08T06:18:48;100846.09;;;14.34;100.00
29121;BME280;16191;49.548;8.658;2023-05-08T06:21:14;100849.25;;;14.43;100.00
29121;BME280;16191;49.548;8.658;2023-05-08T06:23:42;100849.19;;;14.44;100.00
29121;BME280;16191;49.548;8.658;2023-05-08T06:26:08;100845.72;;;14.44;100.00
29121;BME280;16191;49.548;8.658;2023-05-08T06:28:35;100851.28;;;14.36;100.00
29121;BME280;16191;49.548;8.658;2023-05-08T06:31:01;100854.63;;;14.39;100.00
29121;BME280;16191;49.548;8.658;2023-05-08T06:33:28;100848.19;;;14.47;100.00
29121;BME280;16191;49.548;8.658;2023-05-08T06:35:55;100855.44;;;14.42;100.00
29121;BME280;16191;49.548;8.658;2023-05-08T06:38:21;100856.00;;;14.48;100.00
29121;BME280;16191;49.548;8.658;2023-05-08T06:40:48;100853.31;;;14.50;100.00
29121;BME280;16191;49.548;8.658;2023-05-08T06:43:16;100847.19;;;14.49;100.00
29121;BME280;16191;49.548;8.658;2023-05-08T06:45:42;100856.00;;;14.48;100.00
29121;BME280;16191;49.548;8.658;2023-05-08T06:48:10;100847.81;;;14.54;100.00
29121;BME280;16191;49.548;8.658;2023-05-08T06:50:37;100846.03;;;14.55;100.00
29121;BME280;16191;49.548;8.658;2023-05-08T06:53:04;100854.56;;;14.60;100.00
29121;BME280;16191;49.548;8.658;2023-05-08T06:55:31;100853.78;;;14.58;100.00
29121;BME280;16191;49.548;8.658;2023-05-08T06:57:57;100856.03;;;14.65;100.00
29121;BME280;16191;49.548;8.658;2023-05-08T07:00:24;100858.59;;;14.67;100.00
29121;BME280;16191;49.548;8.658;2023-05-08T07:02:51;100859.31;;;14.70;100.00
29121;BME280;16191;49.548;8.658;2023-05-08T07:05:17;100861.75;;;14.73;100.00
29121;BME280;16191;49.548;8.658;2023-05-08T07:07:45;100868.03;;;14.71;100.00
29121;BME280;16191;49.548;8.658;2023-05-08T07:10:12;100868.41;;;14.63;100.00
29121;BME280;16191;49.548;8.658;2023-05-08T07:12:38;100874.22;;;14.70;100.00
29121;BME280;16191;49.548;8.658;2023-05-08T07:15:05;100868.97;;;14.70;100.00
29121;BME280;16191;49.548;8.658;2023-05-08T07:17:49;100863.25;;;14.79;100.00
29121;BME280;16191;49.548;8.658;2023-05-08T07:20:16;100866.81;;;14.78;100.00
29121;BME280;16191;49.548;8.658;2023-05-08T07:22:42;100871.69;;;14.86;100.00
29121;BME280;16191;49.548;8.658;2023-05-08T07:25:09;100870.50;;;14.74;100.00
29121;BME280;16191;49.548;8.658;2023-05-08T07:27:36;100870.56;;;14.72;100.00
29121;BME280;16191;49.548;8.658;2023-05-08T07:30:03;100876.59;;;14.74;100.00
29121;BME280;16191;49.548;8.658;2023-05-08T07:32:29;100875.91;;;14.71;100.00
29121;BME280;16191;49.548;8.658;2023-05-08T07:35:01;100871.97;;;14.80;100.00
29121;BME280;16191;49.548;8.658;2023-05-08T07:37:28;100867.66;;;14.79;100.00
29121;BME280;16191;49.548;8.658;2023-05-08T07:39:54;100873.41;;;14.87;100.00
29121;BME280;16191;49.548;8.658;2023-05-08T07:42:21;100879.50;;;14.87;100.00
29121;BME280;16191;49.548;8.658;2023-05-08T07:44:47;100871.56;;;14.89;100.00
29121;BME280;16191;49.548;8.658;2023-05-08T07:47:20;100873.09;;;14.93;100.00
29121;BME280;16191;49.548;8.658;2023-05-08T07:49:47;100868.84;;;14.90;100.00
29121;BME280;16191;49.548;8.658;2023-05-08T07:52:14;100872.84;;;14.97;100.00
29121;BME280;16191;49.548;8.658;2023-05-08T07:54:40;100868.94;;;15.06;100.00
29121;BME280;16191;49.548;8.658;2023-05-08T07:57:07;100863.75;;;15.04;100.00
29121;BME280;16191;49.548;8.658;2023-05-08T07:59:33;100871.34;;;15.11;100.00
29121;BME280;16191;49.548;8.658;2023-05-08T08:02:00;100865.25;;;15.10;100.00
29121;BME280;16191;49.548;8.658;2023-05-08T08:04:26;100867.47;;;15.18;100.00
29121;BME280;16191;49.548;8.658;2023-05-08T08:06:53;100868.38;;;15.17;100.00
29121;BME280;16191;49.548;8.658;2023-05-08T08:09:20;100865.69;;;15.18;100.00
29121;BME280;16191;49.548;8.658;2023-05-08T08:11:47;100865.75;;;15.17;100.00
29121;BME280;16191;49.548;8.658;2023-05-08T08:14:13;100868.03;;;15.24;100.00
29121;BME280;16191;49.548;8.658;2023-05-08T08:16:40;100875.59;;;15.30;100.00
29121;BME280;16191;49.548;8.658;2023-05-08T08:19:08;100873.75;;;15.32;100.00
29121;BME280;16191;49.548;8.658;2023-05-08T08:21:41;100874.34;;;15.37;100.00
29121;BME280;16191;49.548;8.658;2023-05-08T08:24:08;100871.19;;;15.48;100.00
29121;BME280;16191;49.548;8.658;2023-05-08T08:26:34;100867.72;;;15.65;100.00
29121;BME280;16191;49.548;8.658;2023-05-08T08:29:01;100865.25;;;15.62;100.00
29121;BME280;16191;49.548;8.658;2023-05-08T08:31:27;100874.69;;;15.66;100.00
29121;BME280;16191;49.548;8.658;2023-05-08T08:33:54;100868.25;;;15.71;100.00
29121;BME280;16191;49.548;8.658;2023-05-08T08:36:20;100868.72;;;15.80;100.00
29121;BME280;16191;49.548;8.658;2023-05-08T08:38:46;100871.34;;;15.80;100.00
29121;BME280;16191;49.548;8.658;2023-05-08T08:41:13;100867.75;;;15.81;100.00
29121;BME280;16191;49.548;8.658;2023-05-08T08:43:40;100860.81;;;15.80;100.00
29121;BME280;16191;49.548;8.658;2023-05-08T08:46:10;100863.09;;;15.86;100.00
29121;BME280;16191;49.548;8.658;2023-05-08T08:48:44;100859.91;;;15.96;100.00
29121;BME280;16191;49.548;8.658;2023-05-08T08:51:15;100851.66;;;16.02;100.00
29121;BME280;16191;49.548;8.658;2023-05-08T08:53:45;100855.94;;;16.05;100.00
29121;BME280;16191;49.548;8.658;2023-05-08T08:56:15;100855.81;;;16.24;100.00
29121;BME280;16191;49.548;8.658;2023-05-08T08:58:56;100866.50;;;16.36;100.00
29121;BME280;16191;49.548;8.658;2023-05-08T09:01:25;100858.69;;;16.51;100.00
29121;BME280;16191;49.548;8.658;2023-05-08T09:03:58;100850.34;;;16.58;100.00
29121;BME280;16191;49.548;8.658;2023-05-08T09:06:25;100851.56;;;16.68;100.00
29121;BME280;16191;49.548;8.658;2023-05-08T09:08:54;100849.78;;;16.69;100.00
29121;BME280;16191;49.548;8.658;2023-05-08T09:11:23;100848.94;;;16.84;100.00
29121;BME280;16191;49.548;8.658;2023-05-08T09:13:50;100850.63;;;16.85;100.00
29121;BME280;16191;49.548;8.658;2023-05-08T09:16:17;100849.78;;;16.85;100.00
29121;BME280;16191;49.548;8.658;2023-05-08T09:18:44;100850.94;;;16.95;100.00
29121;BME280;16191;49.548;8.658;2023-05-08T09:21:10;100853.97;;;17.03;100.00
29121;BME280;16191;49.548;8.658;2023-05-08T09:23:57;100862.50;;;16.92;100.00
29121;BME280;16191;49.548;8.658;2023-05-08T09:26:38;100862.09;;;16.84;100.00
29121;BME280;16191;49.548;8.658;2023-05-08T09:29:14;100860.38;;;16.99;100.00
29121;BME280;16191;49.548;8.658;2023-05-08T09:31:43;100860.31;;;17.14;100.00
29121;BME280;16191;49.548;8.658;2023-05-08T09:34:30;100859.38;;;17.16;100.00
29121;BME280;16191;49.548;8.658;2023-05-08T09:39:31;100867.44;;;17.28;100.00
29121;BME280;16191;49.548;8.658;2023-05-08T09:42:04;100862.72;;;17.33;100.00
29121;BME280;16191;49.548;8.658;2023-05-08T09:47:16;100870.09;;;17.42;100.00
29121;BME280;16191;49.548;8.658;2023-05-08T09:50:01;100875.69;;;17.52;100.00
29121;BME280;16191;49.548;8.658;2023-05-08T09:52:30;100870.88;;;17.59;100.00
29121;BME280;16191;49.548;8.658;2023-05-08T09:55:09;100878.03;;;17.57;100.00
29121;BME280;16191;49.548;8.658;2023-05-08T09:57:38;100869.34;;;17.40;100.00
29121;BME280;16191;49.548;8.658;2023-05-08T10:00:10;100877.94;;;17.58;100.00
29121;BME280;16191;49.548;8.658;2023-05-08T10:02:40;100875.47;;;17.71;100.00
29121;BME280;16191;49.548;8.658;2023-05-08T10:07:51;100877.53;;;17.66;100.00
29121;BME280;16191;49.548;8.658;2023-05-08T10:10:25;100878.72;;;17.60;100.00
29121;BME280;16191;49.548;8.658;2023-05-08T10:12:56;100883.13;;;17.60;100.00
29121;BME280;16191;49.548;8.658;2023-05-08T10:15:33;100887.38;;;17.62;100.00
29121;BME280;16191;49.548;8.658;2023-05-08T10:18:04;100883.31;;;17.72;100.00
29121;BME280;16191;49.548;8.658;2023-05-08T10:20:38;100882.91;;;17.64;100.00
29121;BME280;16191;49.548;8.658;2023-05-08T10:23:10;100881.78;;;17.68;100.00
29121;BME280;16191;49.548;8.658;2023-05-08T10:25:55;100885.00;;;17.73;100.00
29121;BME280;16191;49.548;8.658;2023-05-08T10:28:32;100883.00;;;17.77;100.00
29121;BME280;16191;49.548;8.658;2023-05-08T10:31:02;100883.81;;;17.63;100.00
29121;BME280;16191;49.548;8.658;2023-05-08T10:33:33;100883.91;;;17.62;100.00
29121;BME280;16191;49.548;8.658;2023-05-08T10:36:00;100883.41;;;17.55;100.00
29121;BME280;16191;49.548;8.658;2023-05-08T10:38:27;100874.28;;;17.61;100.00
29121;BME280;16191;49.548;8.658;2023-05-08T10:40:53;100884.03;;;17.30;100.00
29121;BME280;16191;49.548;8.658;2023-05-08T10:43:24;100885.09;;;17.42;100.00
29121;BME280;16191;49.548;8.658;2023-05-08T10:45:52;100881.91;;;17.51;100.00
29121;BME280;16191;49.548;8.658;2023-05-08T10:48:53;100891.72;;;17.49;100.00
29121;BME280;16191;49.548;8.658;2023-05-08T10:51:39;100877.94;;;17.44;100.00
29121;BME280;16191;49.548;8.658;2023-05-08T10:54:37;100883.38;;;17.41;100.00
29121;BME280;16191;49.548;8.658;2023-05-08T10:57:11;100886.19;;;17.38;100.00
29121;BME280;16191;49.548;8.658;2023-05-08T10:59:37;100888.72;;;17.25;100.00
29121;BME280;16191;49.548;8.658;2023-05-08T11:02:06;100883.69;;;17.21;100.00
29121;BME280;16191;49.548;8.658;2023-05-08T11:04:33;100884.56;;;17.21;100.00
29121;BME280;16191;49.548;8.658;2023-05-08T11:07:00;100881.06;;;17.21;100.00
29121;BME280;16191;49.548;8.658;2023-05-08T11:09:29;100880.81;;;17.25;100.00
29121;BME280;16191;49.548;8.658;2023-05-08T11:12:27;100882.72;;;17.37;100.00
29121;BME280;16191;49.548;8.658;2023-05-08T11:15:02;100872.47;;;17.47;100.00
29121;BME280;16191;49.548;8.658;2023-05-08T11:17:30;100871.34;;;17.51;100.00
29121;BME280;16191;49.548;8.658;2023-05-08T11:19:59;100871.91;;;17.56;100.00
29121;BME280;16191;49.548;8.658;2023-05-08T11:22:30;100871.03;;;17.71;100.00
29121;BME280;16191;49.548;8.658;2023-05-08T11:25:00;100866.53;;;17.88;100.00
29121;BME280;16191;49.548;8.658;2023-05-08T11:35:43;100856.78;;;18.31;100.00
29121;BME280;16191;49.548;8.658;2023-05-08T11:41:02;100852.91;;;18.22;100.00
29121;BME280;16191;49.548;8.658;2023-05-08T11:48:27;100846.34;;;18.15;100.00
29121;BME280;16191;49.548;8.658;2023-05-08T11:50:54;100848.47;;;18.23;100.00
29121;BME280;16191;49.548;8.658;2023-05-08T11:53:21;100847.38;;;18.12;100.00
29121;BME280;16191;49.548;8.658;2023-05-08T11:55:48;100849.16;;;18.12;100.00
29121;BME280;16191;49.548;8.658;2023-05-08T11:58:15;100847.56;;;18.09;100.00
29121;BME280;16191;49.548;8.658;2023-05-08T12:00:43;100851.22;;;18.07;100.00
29121;BME280;16191;49.548;8.658;2023-05-08T12:03:16;100850.00;;;18.12;100.00
29121;BME280;16191;49.548;8.658;2023-05-08T12:05:44;100853.84;;;18.21;100.00
29121;BME280;16191;49.548;8.658;2023-05-08T12:08:12;100853.22;;;18.18;100.00
29121;BME280;16191;49.548;8.658;2023-05-08T12:13:26;100862.34;;;18.26;100.00
29121;BME280;16191;49.548;8.658;2023-05-08T12:15:56;100858.38;;;18.19;100.00
29121;BME280;16191;49.548;8.658;2023-05-08T12:18:24;100855.00;;;18.17;100.00
29121;BME280;16191;49.548;8.658;2023-05-08T12:20:57;100860.38;;;18.15;100.00
29121;BME280;16191;49.548;8.658;2023-05-08T12:23:25;100860.66;;;18.25;100.00
29121;BME280;16191;49.548;8.658;2023-05-08T12:25:53;100860.81;;;18.22;100.00
29121;BME280;16191;49.548;8.658;2023-05-08T12:28:21;100860.81;;;18.22;100.00
29121;BME280;16191;49.548;8.658;2023-05-08T12:30:47;100856.97;;;18.28;100.00
29121;BME280;16191;49.548;8.658;2023-05-08T12:33:15;100856.50;;;18.21;100.00
29121;BME280;16191;49.548;8.658;2023-05-08T12:35:42;100858.38;;;18.33;100.00
29121;BME280;16191;49.548;8.658;2023-05-08T12:38:09;100861.69;;;18.37;100.00
29121;BME280;16191;49.548;8.658;2023-05-08T12:40:45;100856.94;;;18.42;100.00
29121;BME280;16191;49.548;8.658;2023-05-08T12:43:12;100860.69;;;18.52;100.00
29121;BME280;16191;49.548;8.658;2023-05-08T12:45:40;100854.53;;;18.66;100.00
29121;BME280;16191;49.548;8.658;2023-05-08T12:48:10;100857.66;;;18.72;100.00
29121;BME280;16191;49.548;8.658;2023-05-08T12:50:39;100858.28;;;18.76;100.00
29121;BME280;16191;49.548;8.658;2023-05-08T12:53:07;100858.94;;;18.79;100.00
29121;BME280;16191;49.548;8.658;2023-05-08T12:55:36;100862.66;;;18.63;100.00
29121;BME280;16191;49.548;8.658;2023-05-08T12:58:10;100848.19;;;18.82;100.00
29121;BME280;16191;49.548;8.658;2023-05-08T13:00:49;100845.47;;;19.09;100.00
29121;BME280;16191;49.548;8.658;2023-05-08T13:03:25;100847.19;;;19.10;100.00
29121;BME280;16191;49.548;8.658;2023-05-08T13:05:54;100839.78;;;19.15;100.00
29121;BME280;16191;49.548;8.658;2023-05-08T13:08:37;100854.97;;;19.26;100.00
29121;BME280;16191;49.548;8.658;2023-05-08T13:11:05;100842.78;;;19.36;100.00
29121;BME280;16191;49.548;8.658;2023-05-08T13:13:33;100841.44;;;19.43;100.00
29121;BME280;16191;49.548;8.658;2023-05-08T13:16:02;100839.19;;;19.25;100.00
29121;BME280;16191;49.548;8.658;2023-05-08T13:18:30;100842.94;;;19.08;100.00
29121;BME280;16191;49.548;8.658;2023-05-08T13:20:57;100831.78;;;19.42;100.00
29121;BME280;16191;49.548;8.658;2023-05-08T13:23:24;100828.09;;;19.70;100.00
29121;BME280;16191;49.548;8.658;2023-05-08T13:25:50;100820.38;;;19.80;100.00
29121;BME280;16191;49.548;8.658;2023-05-08T13:28:17;100813.66;;;20.12;100.00
29121;BME280;16191;49.548;8.658;2023-05-08T13:30:43;100814.31;;;20.40;100.00
29121;BME280;16191;49.548;8.658;2023-05-08T13:33:10;100814.44;;;20.38;100.00
29121;BME280;16191;49.548;8.658;2023-05-08T13:35:37;100817.69;;;20.55;100.00
29121;BME280;16191;49.548;8.658;2023-05-08T13:38:04;100811.66;;;20.52;100.00